Time;durP1;ratioP1;P1;durP2;ratioP2;P2;SDS_P1;SDS_P2;PMS_P1;PMS_P2;Temp;Humidity;BMP_temperature;BMP_pressure;BME280_temperature;BME280_humidity;BME280_pressure;Samples;Min_cycle;Max_cycle;Signal;HPM_P1;HPM_P2
2022/07/03 00:01:38;;;;;;;2.78;2.33;;;24.00;59.30;;;;;;5113945;28;20408;-65
2022/07/03 00:04:04;;;;;;;2.53;2.23;;;24.00;59.30;;;;;;5113321;28;20474;-64
2022/07/03 00:06:32;;;;;;;2.20;2.00;;;24.00;59.30;;;;;;5113911;28;20757;-64
2022/07/03 00:09:03;;;;;;;2.40;2.03;;;24.00;59.30;;;;;;5113601;28;20863;-64
2022/07/03 00:11:29;;;;;;;2.57;2.20;;;24.00;59.30;;;;;;5113869;28;20507;-64
2022/07/03 00:13:54;;;;;;;2.20;2.00;;;24.00;59.40;;;;;;5113329;28;20936;-69
2022/07/03 00:16:20;;;;;;;2.30;2.10;;;24.00;59.40;;;;;;5113577;28;20487;-68
2022/07/03 00:18:46;;;;;;;2.38;2.17;;;24.00;59.40;;;;;;5113605;28;20483;-69
2022/07/03 00:21:21;;;;;;;2.40;2.20;;;24.00;59.30;;;;;;5113544;28;20424;-64
2022/07/03 00:24:10;;;;;;;2.10;1.90;;;24.00;59.30;;;;;;5113303;28;20880;-64
2022/07/03 00:26:39;;;;;;;3.70;2.22;;;24.00;59.40;;;;;;5098707;28;20542;-64
2022/07/03 00:29:07;;;;;;;2.60;2.20;;;24.00;59.40;;;;;;5113441;28;20852;-65
2022/07/03 00:31:33;;;;;;;2.40;2.10;;;24.00;59.40;;;;;;5113167;28;20388;-64
2022/07/03 00:34:01;;;;;;;2.40;2.20;;;24.00;59.40;;;;;;5112757;28;20905;-64
2022/07/03 00:36:33;;;;;;;2.28;2.03;;;24.00;59.40;;;;;;5111937;28;20755;-64
2022/07/03 00:38:59;;;;;;;2.58;2.38;;;24.00;59.40;;;;;;5112940;28;20437;-66
2022/07/03 00:41:27;;;;;;;2.47;2.20;;;24.00;59.40;;;;;;5111809;28;20385;-64
2022/07/03 00:43:53;;;;;;;2.50;2.30;;;24.00;59.40;;;;;;5112666;28;20380;-68
2022/07/03 00:46:22;;;;;;;2.58;2.20;;;24.00;59.30;;;;;;5112947;28;20390;-64
2022/07/03 00:48:50;;;;;;;2.30;2.08;;;24.00;59.40;;;;;;5111751;28;20381;-68
2022/07/03 00:51:23;;;;;;;2.13;1.92;;;24.00;59.40;;;;;;5111609;28;20499;-68
2022/07/03 00:53:52;;;;;;;2.72;2.42;;;23.90;59.30;;;;;;5112720;28;20792;-67
2022/07/03 00:56:21;;;;;;;2.70;2.13;;;23.90;59.30;;;;;;5111481;28;20446;-66
2022/07/03 00:58:47;;;;;;;2.30;2.10;;;23.90;59.30;;;;;;5111503;28;20434;-64
2022/07/03 01:01:18;;;;;;;2.33;2.10;;;24.00;59.40;;;;;;5111490;28;20381;-64
2022/07/03 01:03:45;;;;;;;2.22;2.03;;;23.90;59.30;;;;;;5112658;28;20430;-68
2022/07/03 01:06:14;;;;;;;2.08;1.98;;;23.90;59.40;;;;;;5112191;28;20411;-68
2022/07/03 01:08:47;;;;;;;2.30;2.15;;;23.90;59.30;;;;;;5112625;27;20420;-66
2022/07/03 01:11:57;;;;;;;2.50;2.20;;;23.90;59.40;;;;;;5112639;28;20384;-64
2022/07/03 01:14:52;;;;;;;2.38;2.15;;;23.90;59.30;;;;;;5048922;28;20411;-64
2022/07/03 01:17:17;;;;;;;2.30;2.10;;;23.90;59.30;;;;;;5112477;28;20399;-69
2022/07/03 01:19:45;;;;;;;2.47;2.27;;;23.90;59.40;;;;;;5112376;28;20376;-69
2022/07/03 01:22:32;;;;;;;2.10;1.90;;;23.90;59.30;;;;;;5111920;28;20461;-64
2022/07/03 01:25:29;;;;;;;2.50;2.30;;;23.90;59.40;;;;;;5112225;28;20386;-64
2022/07/03 01:28:08;;;;;;;2.20;2.00;;;23.90;59.40;;;;;;5111075;28;20384;-65
2022/07/03 01:30:38;;;;;;;2.50;2.00;;;23.90;59.40;;;;;;5112318;28;20463;-69
2022/07/03 01:33:08;;;;;;;2.40;2.20;;;23.90;59.40;;;;;;5112059;28;20404;-69
2022/07/03 01:35:36;;;;;;;2.20;2.00;;;23.90;59.40;;;;;;5112340;28;20883;-64
2022/07/03 01:38:08;;;;;;;2.35;2.03;;;23.90;59.40;;;;;;5111417;28;20381;-69
2022/07/03 01:40:37;;;;;;;2.13;1.90;;;23.90;59.40;;;;;;5112197;28;20377;-64
2022/07/03 01:43:05;;;;;;;2.45;2.25;;;23.90;59.40;;;;;;5111144;28;20384;-64
2022/07/03 01:45:34;;;;;;;2.33;2.10;;;23.90;59.40;;;;;;5111591;28;20430;-64
2022/07/03 01:48:02;;;;;;;2.58;2.00;;;23.90;59.40;;;;;;5111341;28;20380;-69
2022/07/03 01:50:30;;;;;;;2.38;2.00;;;23.90;59.40;;;;;;5111651;28;20408;-68
2022/07/03 01:53:00;;;;;;;2.25;2.05;;;23.90;59.40;;;;;;5111646;28;20377;-64
2022/07/03 01:55:27;;;;;;;2.42;2.22;;;23.90;59.50;;;;;;5111471;28;20434;-64
2022/07/03 01:57:53;;;;;;;2.30;1.85;;;23.90;59.50;;;;;;5111081;28;20397;-64
2022/07/03 02:00:21;;;;;;;2.20;2.00;;;23.90;59.50;;;;;;5111663;28;20541;-68
2022/07/03 02:03:04;;;;;;;2.45;2.05;;;23.90;59.50;;;;;;5111604;28;20389;-69
2022/07/03 02:05:41;;;;;;;2.10;2.00;;;23.90;59.50;;;;;;5109889;28;20408;-69
2022/07/03 02:08:27;;;;;;;2.20;2.00;;;23.80;59.40;;;;;;5109256;28;20380;-64
2022/07/03 02:11:11;;;;;;;3.20;2.28;;;23.90;59.50;;;;;;5109214;28;20836;-64
2022/07/03 02:14:09;;;;;;;2.50;2.30;;;23.90;59.50;;;;;;5110824;28;20463;-64
2022/07/03 02:16:59;;;;;;;2.37;2.17;;;23.90;59.50;;;;;;5110483;28;20419;-69
2022/07/03 02:19:55;;;;;;;2.20;2.00;;;23.90;59.50;;;;;;5109056;28;20380;-64
2022/07/03 02:22:35;;;;;;;2.00;1.90;;;23.90;59.50;;;;;;5108552;28;20372;-64
2022/07/03 02:25:25;;;;;;;2.00;1.83;;;23.90;59.50;;;;;;5108426;28;20471;-69
2022/07/03 02:27:57;;;;;;;2.22;2.03;;;23.90;59.50;;;;;;5109517;28;20380;-63
2022/07/03 02:30:24;;;;;;;2.22;1.90;;;23.90;59.60;;;;;;5108677;28;20739;-68
2022/07/03 02:32:51;;;;;;;2.40;2.20;;;23.90;59.60;;;;;;5110394;28;20407;-67
2022/07/03 02:35:31;;;;;;;2.53;2.07;;;23.80;59.50;;;;;;5110326;28;20418;-64
2022/07/03 02:38:03;;;;;;;2.20;2.00;;;23.80;59.50;;;;;;5111143;28;20380;-64
2022/07/03 02:41:02;;;;;;;2.20;2.00;;;23.80;59.50;;;;;;5111553;28;20392;-64
2022/07/03 02:43:46;;;;;;;2.20;2.00;;;23.80;59.50;;;;;;5110983;28;20424;-64
2022/07/03 02:49:33;;;;;;;2.20;2.00;;;23.90;59.60;;;;;;5111507;28;20518;-64
2022/07/03 02:52:13;;;;;;;2.30;2.10;;;23.80;59.50;;;;;;5110867;28;20380;-64
2022/07/03 02:54:51;;;;;;;2.10;1.90;;;23.80;59.50;;;;;;5113846;28;20415;-65
2022/07/03 02:57:20;;;;;;;2.20;2.00;;;23.80;59.50;;;;;;5115317;28;20396;-64
2022/07/03 02:59:55;;;;;;;2.10;1.90;;;23.80;59.50;;;;;;5115234;28;20385;-64
2022/07/03 03:02:51;;;;;;;1.90;1.80;;;23.80;59.60;;;;;;5115141;28;20395;-68
2022/07/03 03:05:30;;;;;;;2.10;1.83;;;23.80;59.60;;;;;;5113680;28;21088;-64
2022/07/03 03:08:04;;;;;;;2.25;2.05;;;23.80;59.60;;;;;;5114700;28;20895;-64
2022/07/03 03:10:37;;;;;;;2.20;2.00;;;23.80;59.60;;;;;;5115002;28;20391;-64
2022/07/03 03:13:06;;;;;;;2.50;2.07;;;23.80;59.60;;;;;;5113763;28;20396;-69
2022/07/03 03:15:33;;;;;;;2.50;2.20;;;23.80;59.60;;;;;;5114856;28;20504;-64
2022/07/03 03:18:07;;;;;;;2.10;2.00;;;23.80;59.60;;;;;;5113203;28;20396;-64
2022/07/03 03:20:36;;;;;;;2.22;2.03;;;23.90;59.70;;;;;;5114881;28;20380;-69
2022/07/03 03:23:07;;;;;;;2.03;1.92;;;23.80;59.60;;;;;;5114844;28;20380;-64
2022/07/03 03:25:33;;;;;;;2.10;1.90;;;23.80;59.60;;;;;;5114846;28;20393;-64
2022/07/03 03:27:59;;;;;;;2.25;2.05;;;23.80;59.60;;;;;;5112997;28;20392;-69
2022/07/03 03:30:25;;;;;;;2.13;1.92;;;23.80;59.60;;;;;;5113457;28;20389;-68
2022/07/03 03:32:51;;;;;;;2.05;1.92;;;23.80;59.70;;;;;;5114587;28;20737;-69
2022/07/03 03:35:17;;;;;;;2.35;1.90;;;23.80;59.70;;;;;;5114539;28;20408;-68
2022/07/03 03:37:44;;;;;;;2.22;2.03;;;23.80;59.70;;;;;;5114442;28;20387;-68
2022/07/03 03:40:10;;;;;;;2.10;1.90;;;23.80;59.70;;;;;;5113330;28;20396;-64
2022/07/03 03:42:36;;;;;;;1.85;1.70;;;23.80;59.70;;;;;;5113633;28;20451;-68
2022/07/03 03:45:02;;;;;;;2.27;2.00;;;23.80;59.70;;;;;;5113889;28;20777;-68
2022/07/03 03:47:28;;;;;;;2.20;1.85;;;23.80;59.70;;;;;;5113863;28;20404;-68
2022/07/03 03:49:54;;;;;;;1.98;1.77;;;23.80;59.70;;;;;;5113700;28;20396;-69
2022/07/03 03:52:20;;;;;;;1.97;1.80;;;23.80;59.70;;;;;;5113367;28;20380;-68
2022/07/03 03:54:45;;;;;;;2.95;1.92;;;23.80;59.70;;;;;;5113881;28;20746;-68
2022/07/03 03:57:19;;;;;;;2.20;2.00;;;23.80;59.70;;;;;;5113588;28;20388;-64
2022/07/03 03:59:45;;;;;;;2.35;2.00;;;23.80;59.70;;;;;;5112809;28;20418;-64
2022/07/03 04:02:11;;;;;;;2.20;2.00;;;23.80;59.70;;;;;;5113080;28;20877;-69
2022/07/03 04:04:36;;;;;;;2.40;2.00;;;23.80;59.80;;;;;;5112937;28;20404;-68
2022/07/03 04:07:02;;;;;;;2.30;2.10;;;23.80;59.80;;;;;;5113492;28;20387;-69
2022/07/03 04:09:28;;;;;;;2.10;1.75;;;23.80;59.80;;;;;;5113405;28;20799;-64
2022/07/03 04:11:54;;;;;;;2.08;1.90;;;23.80;59.80;;;;;;5113395;28;20784;-64
2022/07/03 04:14:19;;;;;;;2.35;2.00;;;23.80;59.90;;;;;;5111980;28;20393;-65
2022/07/03 04:16:46;;;;;;;2.20;2.00;;;23.80;59.90;;;;;;5113601;28;20412;-69
2022/07/03 04:19:11;;;;;;;2.40;2.00;;;23.80;59.90;;;;;;5113853;28;20368;-68
2022/07/03 04:21:37;;;;;;;2.20;2.00;;;23.80;59.80;;;;;;5113642;28;20925;-64
2022/07/03 04:24:03;;;;;;;2.03;1.90;;;23.80;59.90;;;;;;5113112;28;20719;-64
2022/07/03 04:26:28;;;;;;;2.30;2.10;;;23.70;59.80;;;;;;5113464;28;20384;-64
2022/07/03 04:28:54;;;;;;;2.13;1.80;;;23.80;59.90;;;;;;5113503;28;20799;-69
2022/07/03 04:31:19;;;;;;;2.10;1.90;;;23.80;59.90;;;;;;5113466;28;20857;-64
2022/07/03 04:33:45;;;;;;;2.22;2.03;;;23.80;59.90;;;;;;5113458;28;20391;-64
2022/07/03 04:36:11;;;;;;;1.70;1.60;;;23.80;59.90;;;;;;5112695;28;20439;-69
2022/07/03 04:38:36;;;;;;;2.40;1.97;;;23.80;59.90;;;;;;5113339;28;20384;-65
2022/07/03 04:41:02;;;;;;;2.20;2.00;;;23.80;59.90;;;;;;5113307;28;20466;-68
2022/07/03 04:43:27;;;;;;;2.00;1.90;;;23.80;59.90;;;;;;5113070;28;20885;-69
2022/07/03 04:45:53;;;;;;;2.00;1.70;;;23.80;60.00;;;;;;5113212;28;20384;-69
2022/07/03 04:48:18;;;;;;;2.30;1.90;;;23.80;60.00;;;;;;5112762;28;20377;-65
2022/07/03 04:50:44;;;;;;;2.08;1.88;;;23.70;59.90;;;;;;5113049;28;20906;-64
2022/07/03 04:53:10;;;;;;;2.17;1.97;;;23.80;60.00;;;;;;5113116;28;20719;-69
2022/07/03 04:55:35;;;;;;;2.20;2.10;;;23.80;60.00;;;;;;5112886;28;20454;-65
2022/07/03 04:58:01;;;;;;;3.22;2.20;;;23.80;60.00;;;;;;5112532;28;20408;-68
2022/07/03 05:00:26;;;;;;;1.90;1.80;;;23.80;60.00;;;;;;5112886;28;20388;-66
2022/07/03 05:02:52;;;;;;;2.90;1.83;;;23.80;60.00;;;;;;5112835;28;20416;-69
2022/07/03 05:05:18;;;;;;;2.20;2.00;;;23.80;60.00;;;;;;5112762;28;20400;-68
2022/07/03 05:07:44;;;;;;;2.47;1.70;;;23.80;60.00;;;;;;5112503;28;20392;-69
2022/07/03 05:10:10;;;;;;;2.37;1.60;;;23.80;61.10;;;;;;5112768;28;20461;-67
2022/07/03 05:12:36;;;;;;;2.33;2.00;;;23.80;60.90;;;;;;5112862;28;20388;-68
2022/07/03 05:15:01;;;;;;;2.60;2.35;;;23.90;61.00;;;;;;5112611;28;20385;-71
2022/07/03 05:17:27;;;;;;;2.92;2.30;;;23.90;61.20;;;;;;5112044;28;20497;-67
2022/07/03 05:20:23;;;;;;;3.15;2.28;;;24.00;61.40;;;;;;5112466;28;20521;-68
2022/07/03 05:22:39;;;;;;;2.55;2.30;;;24.00;61.40;;;;;;5112617;28;20397;-65
2022/07/03 05:25:05;;;;;;;3.22;2.33;;;24.00;61.40;;;;;;5112821;28;20385;-69
2022/07/03 05:27:31;;;;;;;2.40;2.20;;;24.00;61.50;;;;;;5112792;28;20381;-65
2022/07/03 05:29:56;;;;;;;2.70;2.40;;;24.00;61.50;;;;;;5111666;28;20445;-68
2022/07/03 05:32:22;;;;;;;2.85;2.25;;;24.10;61.70;;;;;;5111842;28;20385;-68
2022/07/03 05:34:48;;;;;;;2.73;2.13;;;24.10;61.60;;;;;;5112333;28;20391;-67
2022/07/03 05:37:13;;;;;;;2.50;2.10;;;24.10;61.70;;;;;;5111031;28;20743;-66
2022/07/03 05:39:39;;;;;;;3.13;2.28;;;24.10;61.70;;;;;;5111962;28;20889;-67
2022/07/03 05:42:05;;;;;;;3.40;2.30;;;24.00;61.20;;;;;;5111600;28;20420;-64
2022/07/03 05:44:31;;;;;;;2.72;2.08;;;24.00;61.50;;;;;;5112122;28;20384;-68
2022/07/03 05:46:56;;;;;;;3.90;2.30;;;24.00;61.40;;;;;;5111937;28;20392;-64
2022/07/03 05:49:22;;;;;;;2.83;1.98;;;24.00;61.40;;;;;;5112100;28;20463;-67
2022/07/03 05:51:48;;;;;;;3.72;1.80;;;24.00;59.80;;;;;;5111758;28;20893;-66
2022/07/03 05:54:14;;;;;;;5.00;1.80;;;24.00;58.90;;;;;;5111681;28;20384;-68
2022/07/03 05:56:39;;;;;;;2.20;2.00;;;23.90;58.70;;;;;;5111979;28;20419;-66
2022/07/03 05:59:05;;;;;;;2.40;2.10;;;24.00;59.40;;;;;;5111985;28;20815;-68
2022/07/03 06:01:30;;;;;;;3.00;1.90;;;24.00;59.60;;;;;;5111834;28;20385;-68
2022/07/03 06:03:56;;;;;;;2.50;2.20;;;24.00;59.70;;;;;;5111621;28;20792;-64
2022/07/03 06:06:22;;;;;;;2.60;2.20;;;24.10;59.90;;;;;;5111541;28;20445;-67
2022/07/03 06:08:47;;;;;;;3.10;2.37;;;24.00;60.00;;;;;;5110500;28;20419;-64
2022/07/03 06:11:13;;;;;;;2.20;1.97;;;24.10;60.20;;;;;;5110586;28;20475;-64
2022/07/03 06:13:38;;;;;;;2.33;2.05;;;24.10;60.10;;;;;;5111777;28;20892;-68
2022/07/03 06:16:04;;;;;;;2.30;2.10;;;24.10;60.20;;;;;;5111241;28;20438;-67
2022/07/03 06:18:30;;;;;;;3.10;2.00;;;24.20;60.30;;;;;;5111756;28;20932;-65
2022/07/03 06:20:56;;;;;;;2.83;2.00;;;24.20;60.50;;;;;;5111756;28;20384;-64
2022/07/03 06:23:21;;;;;;;3.00;2.10;;;24.30;61.20;;;;;;5111611;28;20360;-68
2022/07/03 06:25:47;;;;;;;2.90;1.92;;;24.30;61.30;;;;;;5111557;28;20377;-65
2022/07/03 06:28:12;;;;;;;2.53;2.10;;;24.30;60.70;;;;;;5111843;28;20400;-68
2022/07/03 06:30:38;;;;;;;2.40;2.08;;;24.30;60.20;;;;;;5115816;28;20413;-68
2022/07/03 06:33:04;;;;;;;3.30;1.83;;;24.30;60.30;;;;;;5115971;28;20376;-68
2022/07/03 06:35:29;;;;;;;3.53;2.23;;;24.30;60.40;;;;;;5115731;28;20952;-65
2022/07/03 06:37:55;;;;;;;3.22;2.33;;;24.30;60.80;;;;;;5115624;28;20396;-64
2022/07/03 06:40:21;;;;;;;4.35;2.20;;;24.30;60.60;;;;;;5115202;28;20911;-66
2022/07/03 06:42:46;;;;;;;3.57;2.20;;;24.30;60.80;;;;;;5115603;28;20407;-68
2022/07/03 06:45:12;;;;;;;3.10;2.17;;;24.40;60.90;;;;;;5114914;28;20391;-64
2022/07/03 06:47:40;;;;;;;3.45;2.08;;;24.40;61.10;;;;;;5115055;28;20456;-64
2022/07/03 06:50:07;;;;;;;2.90;2.50;;;24.40;61.50;;;;;;5114787;28;20384;-69
2022/07/03 06:52:32;;;;;;;2.70;2.20;;;24.40;61.20;;;;;;5115453;28;20410;-64
2022/07/03 06:54:58;;;;;;;2.88;2.20;;;24.30;61.20;;;;;;5115182;28;20380;-67
2022/07/03 06:57:24;;;;;;;3.03;2.00;;;24.40;61.40;;;;;;5115454;28;20501;-64
2022/07/03 06:59:49;;;;;;;3.40;2.10;;;24.40;61.60;;;;;;5115181;28;20391;-69
2022/07/03 07:02:15;;;;;;;3.25;2.20;;;24.40;61.60;;;;;;5114508;28;20388;-69
2022/07/03 07:04:40;;;;;;;3.17;2.27;;;24.40;61.60;;;;;;5114801;28;20401;-64
2022/07/03 07:07:06;;;;;;;3.43;2.20;;;24.40;61.60;;;;;;5115191;28;20369;-68
2022/07/03 07:09:32;;;;;;;3.38;2.35;;;24.40;61.60;;;;;;5115120;28;20388;-68
2022/07/03 07:11:57;;;;;;;2.70;2.23;;;24.40;62.00;;;;;;5115066;28;20901;-67
2022/07/03 07:14:23;;;;;;;2.55;2.35;;;24.40;62.10;;;;;;5114451;28;20390;-66
2022/07/03 07:16:49;;;;;;;2.47;1.98;;;24.30;62.00;;;;;;5114717;28;20491;-69
2022/07/03 07:19:14;;;;;;;2.47;2.27;;;24.40;62.00;;;;;;5114952;28;20862;-66
2022/07/03 07:21:40;;;;;;;2.42;2.10;;;24.40;62.00;;;;;;5114735;28;20384;-69
2022/07/03 07:24:06;;;;;;;3.20;2.30;;;24.30;61.90;;;;;;5114285;28;20384;-68
2022/07/03 07:26:32;;;;;;;3.47;2.47;;;24.30;62.20;;;;;;5113842;28;20395;-69
2022/07/03 07:28:57;;;;;;;3.37;2.20;;;24.30;61.90;;;;;;5114375;28;20377;-67
2022/07/03 07:31:23;;;;;;;7.07;2.40;;;24.30;61.90;;;;;;5114477;28;20832;-64
2022/07/03 07:33:48;;;;;;;6.72;2.10;;;24.30;61.80;;;;;;5113187;28;20530;-69
2022/07/03 07:36:14;;;;;;;7.15;2.60;;;24.40;61.90;;;;;;5114085;28;20495;-65
2022/07/03 07:38:40;;;;;;;3.87;2.00;;;24.40;62.70;;;;;;5113692;28;20923;-69
2022/07/03 07:41:06;;;;;;;6.65;2.30;;;24.30;62.00;;;;;;5112885;28;20385;-68
2022/07/03 07:43:31;;;;;;;4.93;2.10;;;24.30;62.10;;;;;;5114128;28;20380;-66
2022/07/03 07:45:57;;;;;;;3.72;2.45;;;24.40;62.10;;;;;;5112132;28;20901;-65
2022/07/03 07:48:22;;;;;;;4.65;2.25;;;24.40;62.10;;;;;;5113464;28;20376;-66
2022/07/03 07:50:49;;;;;;;5.10;2.20;;;24.40;62.60;;;;;;5114077;28;20384;-64
2022/07/03 07:53:15;;;;;;;2.92;2.20;;;24.40;61.90;;;;;;5113513;28;20380;-69
2022/07/03 07:55:41;;;;;;;4.00;2.40;;;24.40;61.90;;;;;;5114017;28;20849;-64
2022/07/03 07:58:08;;;;;;;3.90;2.30;;;24.40;61.80;;;;;;5112301;28;20389;-66
2022/07/03 08:00:33;;;;;;;2.90;2.30;;;24.40;61.80;;;;;;5113678;28;20388;-68
2022/07/03 08:05:43;;;;;;;4.03;2.45;;;24.40;61.80;;;;;;5113737;28;20453;-69
2022/07/03 08:08:10;;;;;;;2.30;2.10;;;24.40;61.80;;;;;;5113543;28;20392;-64
2022/07/03 08:10:38;;;;;;;4.43;2.20;;;24.40;61.80;;;;;;5113818;28;20452;-69
2022/07/03 08:13:05;;;;;;;4.40;2.33;;;24.40;61.80;;;;;;5113706;28;20392;-68
2022/07/03 08:15:31;;;;;;;3.60;2.10;;;24.40;61.60;;;;;;5113011;28;20411;-68
2022/07/03 08:17:56;;;;;;;4.03;2.30;;;24.50;61.70;;;;;;5113570;28;20479;-66
2022/07/03 08:20:22;;;;;;;3.00;1.90;;;24.50;61.70;;;;;;5113299;28;20369;-64
2022/07/03 08:22:47;;;;;;;4.07;2.20;;;24.50;61.60;;;;;;5113347;28;20389;-69
2022/07/03 08:25:13;;;;;;;3.05;2.00;;;24.50;61.70;;;;;;5113635;28;20429;-64
2022/07/03 08:27:39;;;;;;;4.97;2.30;;;24.50;62.00;;;;;;5113503;28;20742;-65
2022/07/03 08:30:05;;;;;;;4.13;2.10;;;24.50;62.40;;;;;;5113374;28;20384;-68
2022/07/03 08:32:31;;;;;;;3.42;2.38;;;24.50;62.20;;;;;;5113031;28;20377;-65
2022/07/03 08:34:56;;;;;;;6.82;2.55;;;24.60;62.20;;;;;;5113098;28;20401;-68
2022/07/03 08:37:22;;;;;;;8.60;4.22;;;24.50;62.40;;;;;;5113372;28;20885;-69
2022/07/03 08:39:47;;;;;;;6.63;3.30;;;24.60;63.20;;;;;;5113308;28;20390;-69
2022/07/03 08:42:15;;;;;;;6.20;2.83;;;24.60;63.20;;;;;;5113025;28;20990;-68
2022/07/03 08:44:43;;;;;;;5.63;2.83;;;24.60;62.80;;;;;;5113059;28;20380;-65
2022/07/03 08:47:12;;;;;;;6.40;2.78;;;24.60;63.20;;;;;;5113163;28;20393;-69
2022/07/03 08:49:39;;;;;;;6.33;2.77;;;24.70;63.00;;;;;;5113164;28;20384;-69
2022/07/03 08:52:07;;;;;;;7.43;2.67;;;24.60;62.90;;;;;;5111762;28;20389;-66
2022/07/03 08:54:33;;;;;;;6.47;2.85;;;24.70;62.60;;;;;;5112912;28;20384;-67
2022/07/03 08:57:00;;;;;;;7.97;3.13;;;24.70;62.60;;;;;;5112966;28;20416;-69
2022/07/03 08:59:38;;;;;;;7.22;3.03;;;24.70;62.90;;;;;;5113127;28;20885;-64
2022/07/03 09:02:05;;;;;;;19.17;5.90;;;24.70;62.90;;;;;;5113199;28;20384;-70
2022/07/03 09:04:34;;;;;;;15.55;5.13;;;24.90;65.60;;;;;;5109785;28;20400;-68
2022/07/03 09:07:00;;;;;;;19.95;5.15;;;25.00;65.30;;;;;;5111626;28;20896;-70
2022/07/03 09:09:26;;;;;;;16.73;4.97;;;25.00;65.10;;;;;;5111441;28;20399;-68
2022/07/03 09:11:52;;;;;;;14.57;4.40;;;25.00;65.20;;;;;;5111442;28;20385;-69
2022/07/03 09:14:18;;;;;;;17.92;4.63;;;25.10;65.40;;;;;;5112222;28;20384;-69
2022/07/03 09:16:44;;;;;;;21.52;6.00;;;25.10;66.20;;;;;;5112666;28;20412;-70
2022/07/03 09:19:10;;;;;;;19.08;6.47;;;25.10;66.90;;;;;;5112660;28;20448;-65
2022/07/03 09:21:40;;;;;;;25.55;5.78;;;25.20;67.10;;;;;;5111327;28;20410;-66
2022/07/03 09:24:09;;;;;;;17.05;4.28;;;25.30;66.80;;;;;;5112523;28;20897;-69
2022/07/03 09:26:49;;;;;;;13.43;4.07;;;25.30;65.90;;;;;;5112180;28;20415;-69
2022/07/03 09:29:14;;;;;;;14.23;4.28;;;25.20;65.20;;;;;;5112898;28;20380;-68
2022/07/03 09:31:40;;;;;;;17.00;3.95;;;25.10;65.40;;;;;;5112276;28;20384;-70
2022/07/03 09:34:09;;;;;;;10.40;3.67;;;25.20;65.80;;;;;;5112199;28;20729;-70
2022/07/03 09:36:43;;;;;;;14.90;3.50;;;25.30;65.90;;;;;;5111747;28;20408;-69
2022/07/03 09:39:36;;;;;;;11.80;3.47;;;25.30;65.70;;;;;;5112783;28;20462;-70
2022/07/03 09:42:12;;;;;;;10.63;3.50;;;25.40;65.50;;;;;;5112308;28;20385;-70
2022/07/03 09:44:42;;;;;;;11.95;3.20;;;25.40;65.30;;;;;;5112050;28;20400;-69
2022/07/03 09:47:34;;;;;;;10.80;3.40;;;25.40;65.30;;;;;;5112217;28;20381;-70
2022/07/03 09:50:04;;;;;;;11.25;3.40;;;25.50;65.70;;;;;;5106904;28;20389;-69
2022/07/03 09:52:41;;;;;;;13.38;3.30;;;25.50;65.80;;;;;;5110400;28;20388;-68
2022/07/03 09:55:10;;;;;;;12.05;3.30;;;25.60;65.30;;;;;;5111948;28;20384;-65
2022/07/03 09:57:36;;;;;;;13.75;3.92;;;25.50;65.20;;;;;;5112091;28;20406;-68
2022/07/03 10:00:20;;;;;;;12.43;3.53;;;25.50;65.30;;;;;;5111755;28;20377;-69
2022/07/03 10:02:54;;;;;;;10.38;3.20;;;25.60;66.00;;;;;;5111564;28;20479;-69
2022/07/03 10:05:22;;;;;;;12.07;3.28;;;25.60;65.00;;;;;;5112295;28;20439;-69
2022/07/03 10:07:56;;;;;;;9.45;3.03;;;25.60;65.00;;;;;;5112461;28;20434;-67
2022/07/03 10:10:23;;;;;;;10.82;3.03;;;25.60;65.00;;;;;;5112004;28;20380;-64
2022/07/03 10:12:51;;;;;;;8.98;3.20;;;25.60;65.20;;;;;;5112127;28;20396;-69
2022/07/03 10:15:17;;;;;;;7.90;3.13;;;25.60;65.30;;;;;;5111795;28;20750;-68
2022/07/03 10:17:46;;;;;;;10.88;3.60;;;25.60;64.90;;;;;;5111885;28;20395;-68
2022/07/03 10:20:15;;;;;;;11.43;3.47;;;25.60;65.00;;;;;;5111390;28;20394;-66
2022/07/03 10:22:47;;;;;;;11.73;3.50;;;25.60;65.40;;;;;;5111657;28;20393;-69
2022/07/03 10:25:14;;;;;;;13.07;3.55;;;25.50;65.70;;;;;;5111638;28;20369;-66
2022/07/03 10:27:40;;;;;;;12.00;3.75;;;25.50;66.00;;;;;;5111593;28;20376;-68
2022/07/03 10:30:06;;;;;;;7.88;3.35;;;25.50;66.30;;;;;;5111556;28;20757;-69
2022/07/03 10:32:33;;;;;;;7.93;2.95;;;25.50;65.50;;;;;;5111187;28;20396;-65
2022/07/03 10:35:02;;;;;;;11.10;2.97;;;25.50;65.00;;;;;;5111599;28;20377;-69
2022/07/03 10:37:41;;;;;;;6.47;2.30;;;25.50;64.50;;;;;;5111685;28;20396;-68
2022/07/03 10:46:24;;;;;;;10.53;2.70;;;25.40;63.30;;;;;;5008651;28;20758;-68
2022/07/03 10:48:57;;;;;;;4.32;2.20;;;25.40;63.10;;;;;;5074037;28;20788;-69
2022/07/03 10:51:23;;;;;;;6.00;2.35;;;25.30;62.70;;;;;;5091258;28;20375;-64
2022/07/03 10:53:49;;;;;;;118.00;69.88;;;25.30;62.50;;;;;;5089947;28;20944;-65
2022/07/03 10:56:15;;;;;;;132.05;51.05;;;25.30;63.30;;;;;;5096105;28;20400;-68
2022/07/03 10:59:00;;;;;;;90.17;36.17;;;25.40;64.50;;;;;;5110487;28;20474;-69
2022/07/03 11:01:30;;;;;;;202.20;66.97;;;25.40;64.50;;;;;;5109021;28;20900;-64
2022/07/03 11:04:01;;;;;;;255.93;69.80;;;25.50;64.70;;;;;;5111127;28;20413;-69
2022/07/03 11:06:51;;;;;;;301.70;77.32;;;25.40;65.70;;;;;;5109968;28;20404;-70
2022/07/03 11:09:16;;;;;;;228.10;83.80;;;25.50;66.60;;;;;;5102026;28;20391;-68
2022/07/03 11:11:57;;;;;;;422.90;252.90;;;25.60;66.20;;;;;;5109858;28;20392;-69
2022/07/03 11:14:29;;;;;;;420.40;247.70;;;25.70;65.60;;;;;;5107120;28;20411;-68
2022/07/03 11:17:18;;;;;;;330.27;175.80;;;25.70;66.60;;;;;;5112817;28;20809;-67
2022/07/03 11:20:23;;;;;;;235.40;119.30;;;25.80;66.20;;;;;;5114859;28;20384;-68
2022/07/03 11:22:54;;;;;;;192.32;97.57;;;25.80;66.00;;;;;;5114007;28;20392;-68
2022/07/03 11:25:23;;;;;;;185.85;91.93;;;25.80;65.90;;;;;;5114662;28;20383;-69
2022/07/03 11:27:49;;;;;;;178.13;93.45;;;25.80;65.80;;;;;;5115280;28;20462;-68
2022/07/03 11:30:15;;;;;;;175.95;89.95;;;25.80;65.80;;;;;;5114282;28;20480;-68
2022/07/03 11:32:57;;;;;;;164.90;84.40;;;25.80;65.50;;;;;;5111760;28;20468;-68
2022/07/03 11:35:48;;;;;;;156.15;81.82;;;25.80;64.40;;;;;;5112567;28;20481;-68
2022/07/03 11:38:19;;;;;;;136.05;74.63;;;25.80;64.30;;;;;;5112531;27;20894;-70
2022/07/03 11:40:48;;;;;;;136.80;70.50;;;25.80;63.80;;;;;;5111321;28;20391;-68
2022/07/03 11:43:14;;;;;;;133.18;65.97;;;25.80;63.50;;;;;;5113436;28;20393;-68
2022/07/03 11:45:41;;;;;;;127.03;65.60;;;25.80;64.30;;;;;;5113239;28;20379;-69
2022/07/03 11:48:18;;;;;;;124.30;62.67;;;25.80;64.70;;;;;;5111747;28;21176;-67
2022/07/03 11:50:46;;;;;;;117.80;61.28;;;25.80;65.50;;;;;;5111508;28;20373;-64
2022/07/03 11:53:17;;;;;;;117.97;60.80;;;25.80;65.20;;;;;;5112680;28;20388;-69
2022/07/03 11:55:47;;;;;;;109.28;56.20;;;25.80;65.00;;;;;;5112719;28;20769;-68
2022/07/03 11:58:13;;;;;;;102.38;56.05;;;25.80;64.60;;;;;;5113756;28;20977;-67
2022/07/03 12:00:39;;;;;;;98.97;53.40;;;25.80;65.00;;;;;;5113725;28;20470;-68
2022/07/03 12:03:04;;;;;;;92.15;49.50;;;25.90;65.50;;;;;;5114092;28;20820;-67
2022/07/03 12:05:30;;;;;;;91.00;49.58;;;25.80;64.80;;;;;;5114134;28;20400;-67
2022/07/03 12:08:05;;;;;;;86.13;47.13;;;25.80;64.50;;;;;;5113761;28;20548;-69
2022/07/03 12:10:41;;;;;;;99.90;49.15;;;25.80;65.00;;;;;;5113319;28;20888;-67
2022/07/03 12:13:19;;;;;;;89.43;44.53;;;25.90;65.30;;;;;;5113187;28;20420;-68
2022/07/03 12:15:46;;;;;;;75.78;42.17;;;25.80;65.20;;;;;;5112408;28;20500;-67
2022/07/03 12:18:12;;;;;;;79.13;42.33;;;25.80;64.90;;;;;;5111081;28;20388;-66
2022/07/03 12:20:37;;;;;;;77.82;41.13;;;25.90;65.50;;;;;;5111933;28;20903;-69
2022/07/03 12:23:03;;;;;;;73.25;38.75;;;26.00;65.90;;;;;;5112304;28;20791;-69
2022/07/03 12:25:37;;;;;;;65.17;37.97;;;26.00;65.50;;;;;;5109425;28;20449;-65
2022/07/03 12:28:04;;;;;;;65.80;34.67;;;26.00;66.20;;;;;;5112211;28;20465;-69
2022/07/03 12:30:30;;;;;;;67.32;35.20;;;26.00;63.80;;;;;;5109424;28;20383;-69
2022/07/03 12:32:57;;;;;;;64.87;34.77;;;26.00;66.00;;;;;;5113758;28;20952;-71
2022/07/03 12:35:27;;;;;;;62.55;32.75;;;26.00;65.70;;;;;;5112849;28;20491;-66
2022/07/03 12:37:52;;;;;;;58.42;30.95;;;26.00;65.10;;;;;;5110816;28;20889;-68
2022/07/03 12:40:18;;;;;;;56.17;28.48;;;26.00;64.30;;;;;;5113165;28;20396;-69
2022/07/03 12:42:47;;;;;;;56.23;29.50;;;26.00;63.80;;;;;;5112828;28;20392;-68
2022/07/03 12:45:14;;;;;;;55.77;29.77;;;26.00;63.80;;;;;;5113365;28;20465;-70
2022/07/03 12:47:40;;;;;;;47.55;25.92;;;26.00;63.80;;;;;;5113209;27;20442;-67
2022/07/03 12:50:07;;;;;;;54.80;28.43;;;25.90;63.30;;;;;;5113292;28;20376;-68
2022/07/03 12:52:41;;;;;;;42.35;24.17;;;25.90;63.20;;;;;;5112987;28;20885;-70
2022/07/03 12:55:25;;;;;;;46.35;24.63;;;25.90;62.80;;;;;;5105805;28;20432;-69
2022/07/03 13:00:58;;;;;;;38.03;21.90;;;25.90;62.60;;;;;;5107976;28;20818;-68
2022/07/03 13:03:29;;;;;;;38.58;23.08;;;25.90;62.20;;;;;;5111806;28;20392;-70
2022/07/03 13:05:55;;;;;;;40.30;21.75;;;25.80;62.20;;;;;;5109603;28;20466;-66
2022/07/03 13:08:20;;;;;;;38.33;21.00;;;25.90;62.40;;;;;;5112245;28;20388;-63